Latest Weather Observations for Christmas Creek

IDW60801

Issued at 9:32 am WST Wednesday 1 June 2016 (issued every 30 minutes, with the page automatically refreshed every 10 minutes)

About weather observations | Map of weather stations | Latest weather observations for WA | Other Formats
Station Details ID: 505049 Name: CHRISTMAS CREEK Lat: -22.36 Lon: 119.65 Height: 437.21 m
Data from the previous 72 hours. | See also: Recent months for locations in Western Australia
Date/Time
WST
Temp
°C
App
Temp
°C
Dew
Point
Rel
Hum
%
Delta-T
°C
Wind Press
QNH
hPa
Press
MSL
hPa
Rain
since 9 am
mm
Dir
 
Spd
km/h
Gust
km/h
Spd
kts
Gust
kts
01/09:30am 24.3 23.8 10.9 43 7.6 NNW 4 7 2 4 1017.6 1016.9 0.0
01/09:00am 22.7 21.9 11.1 48 6.6 NW 6 9 3 5 1017.8 1017.1 0.0
01/08:30am 21.0 19.7 11.3 54 5.5 NNW 9 13 5 7 1017.5 1016.8 0.0
01/08:00am 19.6 17.6 11.4 59 4.6 N 13 19 7 10 1017.3 1016.6 0.0
01/07:30am 18.4 16.6 11.0 62 4.1 N 11 15 6 8 1017.0 1015.5 0.0
01/07:00am 17.6 16.5 10.7 64 3.8 N 7 17 4 9 1016.7 1015.2 0.0
01/06:30am 16.9 14.9 10.3 65 3.6 N 11 13 6 7 1016.4 1014.9 0.0
01/06:00am 17.2 15.2 10.3 64 3.7 N 11 13 6 7 1016.2 1014.7 0.0
01/05:30am 17.5 15.2 10.4 63 3.9 N 13 17 7 9 1015.9 1014.3 0.0
01/05:00am 17.6 16.0 10.2 62 4.0 N 9 13 5 7 1015.5 1014.0 0.0
01/04:30am 17.6 16.0 10.2 62 4.0 N 9 13 5 7 1015.5 1014.0 0.0
01/04:00am 17.7 15.3 10.1 61 4.1 N 13 15 7 8 1015.4 1013.9 0.0
01/03:30am 18.0 16.5 10.4 61 4.2 N 9 11 5 6 1015.5 1014.0 0.0
01/03:00am 18.0 16.4 10.1 60 4.3 NNE 9 13 5 7 1015.7 1014.1 0.0
01/02:30am 18.9 17.6 9.9 56 4.9 WNW 7 7 4 4 1015.5 1014.0 0.0
01/02:00am 19.9 18.2 10.0 53 5.4 NW 9 11 5 6 1015.9 1014.3 0.0
01/01:30am 20.4 19.4 10.2 52 5.6 WNW 6 9 3 5 1016.1 1014.6 0.0
01/01:00am 20.7 17.7 10.8 53 5.5 N 17 20 9 11 1016.1 1014.6 0.0
01/12:30am 21.0 18.9 11.1 53 5.6 NNW 13 17 7 9 1016.3 1014.8 0.0
01/12:00am 21.9 19.4 11.0 50 6.1 NNW 15 19 8 10 1016.2 1014.7 0.0
 
Date/Time
WST
Temp
°C
App
Temp
°C
Dew
Point
Rel
Hum
%
Delta-T
°C
Wind Press
QNH
hPa
Press
MSL
hPa
Rain
since 9 am
mm
Dir
 
Spd
km/h
Gust
km/h
Spd
kts
Gust
kts
31/11:30pm 22.4 19.7 11.8 51 6.1 NNW 17 22 9 12 1016.3 1014.8 0.0
31/11:00pm 23.0 20.1 12.3 51 6.2 NNW 19 26 10 14 1016.6 1015.1 0.0
31/10:30pm 23.5 20.6 12.2 49 6.6 NW 19 24 10 13 1016.6 1015.1 0.0
31/10:00pm 24.1 21.1 11.8 46 7.1 NNW 19 26 10 14 1016.6 1015.1 0.0
31/09:30pm 24.0 22.2 11.0 44 7.4 NNW 11 15 6 8 1016.4 1014.9 0.0
31/09:00pm 23.0 21.0 10.1 44 7.2 NNW 11 13 6 7 1016.5 1015.0 0.0
31/08:30pm 23.1 21.4 9.8 43 7.4 N 9 13 5 7 1016.3 1014.8 0.0
31/08:00pm 23.4 21.7 9.8 42 7.6 N 9 9 5 5 1016.0 1014.5 0.0
31/07:30pm 24.3 22.5 9.5 39 8.2 NNW 9 11 5 6 1015.8 1014.2 0.0
31/07:00pm 24.9 23.0 9.2 37 8.7 NW 9 11 5 6 1015.5 1014.0 0.0
31/06:30pm 25.9 24.1 9.3 35 9.3 NNW 9 11 5 6 1015.1 1013.6 0.0
31/06:00pm 26.8 25.2 8.7 32 10.0 NNW 7 9 4 5 1014.7 1013.2 0.0
31/05:30pm 28.0 25.4 9.3 31 10.6 NNW 13 19 7 10 1014.3 1012.8 0.0
31/05:00pm 28.9 25.4 8.6 28 11.4 NNW 17 24 9 13 1014.1 1012.6 0.0
31/04:30pm 29.5 25.4 8.0 26 12.0 NNW 19 24 10 13 1013.7 1012.1 0.0
31/04:00pm 29.5 26.2 8.0 26 12.0 NNW 15 22 8 12 1013.5 1011.9 0.0
31/03:30pm 29.8 25.8 8.2 26 12.1 NNW 19 28 10 15 1013.4 1011.8 0.0
31/03:00pm 29.9 26.7 8.3 26 12.1 NW 15 28 8 15 1013.5 1011.9 0.0
31/02:30pm 29.7 25.2 8.7 27 11.8 NW 22 32 12 17 1013.6 1012.0 0.0
31/02:00pm 29.8 25.9 8.8 27 11.9 NNW 19 33 10 18 1013.7 1012.1 0.0
31/01:30pm 29.3 24.9 8.9 28 11.5 NW 22 32 12 17 1013.9 1012.3 0.0
31/01:00pm 29.2 25.5 9.3 29 11.3 NW 19 33 10 18 1014.3 1012.8 0.0
31/12:30pm 28.9 25.0 9.6 30 11.0 NNW 20 32 11 17 1014.8 1013.3 0.0
31/12:00pm 28.2 24.8 9.0 30 10.8 NNW 17 28 9 15 1015.2 1013.7 0.0
31/11:30am 28.4 25.3 8.7 29 11.0 NNW 15 26 8 14 1015.5 1014.0 0.0
31/11:00am 27.6 24.4 8.5 30 10.6 NNW 15 24 8 13 1016.0 1014.5 0.0
31/10:30am 27.2 23.9 8.1 30 10.5 N 15 22 8 12 1016.3 1014.8 0.0
31/10:00am 26.7 24.1 7.7 30 10.4 N 11 22 6 12 1016.5 1015.0 0.0
31/09:30am 25.3 24.0 9.2 36 8.9 N 6 9 3 5 1016.7 1015.2 0.0
31/09:00am 23.7 22.2 9.3 40 7.9 N 7 11 4 6 1016.8 1015.3 0.0
31/08:30am 22.2 20.2 10.0 46 6.8 N 11 13 6 7 1016.5 1015.0 0.0
31/08:00am 20.5 18.1 10.0 51 5.8 N 13 17 7 9 1016.3 1014.8 0.0
31/07:30am 19.0 16.4 9.5 54 5.1 N 13 15 7 8 1016.2 1014.7 0.0
31/07:00am 17.8 15.4 8.6 55 4.8 N 11 15 6 8 1015.9 1014.3 0.0
31/06:30am 17.3 16.2 8.4 56 4.7 NNE 4 7 2 4 1015.4 1013.9 0.0
31/06:00am 17.4 15.3 8.3 55 4.8 N 9 13 5 7 1015.2 1013.7 0.0
31/05:30am 18.0 14.8 8.3 53 5.1 N 15 17 8 9 1014.8 1013.3 0.0
31/05:00am 17.8 15.7 8.1 53 5.1 N 9 11 5 6 1014.7 1013.2 0.0
31/04:30am 18.0 15.5 8.3 53 5.1 N 11 15 6 8 1014.7 1013.2 0.0
31/04:00am 18.3 15.4 8.3 52 5.3 N 13 15 7 8 1014.7 1013.2 0.0
31/03:30am 18.3 16.5 8.0 51 5.4 N 7 11 4 6 1014.6 1013.1 0.0
31/03:00am 19.0 16.5 8.1 49 5.7 NNW 11 15 6 8 1014.6 1013.1 0.0
31/02:30am 19.0 16.8 7.8 48 5.9 N 9 13 5 7 1014.8 1013.3 0.0
31/02:00am 20.6 18.6 8.6 46 6.4 NNW 9 15 5 8 1015.1 1013.6 0.0
31/01:30am 20.9 18.9 8.5 45 6.6 NNW 9 15 5 8 1015.3 1013.8 0.0
31/01:00am 21.7 18.5 8.6 43 7.1 NNW 15 19 8 10 1015.1 1013.6 0.0
31/12:30am 22.4 18.8 8.5 41 7.5 NNW 17 20 9 11 1015.0 1013.5 0.0
31/12:00am 22.6 18.6 8.3 40 7.7 NW 19 22 10 12 1015.0 1013.5 0.0
 
Date/Time
WST
Temp
°C
App
Temp
°C
Dew
Point
Rel
Hum
%
Delta-T
°C
Wind Press
QNH
hPa
Press
MSL
hPa
Rain
since 9 am
mm
Dir
 
Spd
km/h
Gust
km/h
Spd
kts
Gust
kts
30/11:30pm 23.1 19.3 7.6 37 8.3 NW 17 20 9 11 1015.2 1013.7 0.0
30/11:00pm 23.7 19.8 7.3 35 8.7 NW 17 20 9 11 1015.3 1013.8 0.0
30/10:30pm 23.6 20.8 6.8 34 8.9 NNW 11 13 6 7 1015.2 1013.7 0.0
30/10:00pm 23.9 20.8 7.1 34 8.9 NNW 13 17 7 9 1015.1 1013.6 0.0
30/09:30pm 23.2 20.4 6.9 35 8.6 NNW 11 13 6 7 1015.4 1013.9 0.0
30/09:00pm 23.6 20.7 6.4 33 9.0 NNW 11 13 6 7 1015.4 1013.9 0.0
30/08:30pm 24.2 21.3 6.5 32 9.3 NNW 11 15 6 8 1015.3 1013.8 0.0
30/08:00pm 24.5 21.2 6.3 31 9.6 NNW 13 15 7 8 1015.2 1013.7 0.0
30/07:30pm 24.8 21.8 6.1 30 9.8 NNW 11 15 6 8 1015.1 1013.6 0.0
30/07:00pm 25.3 22.3 6.0 29 10.1 NW 11 13 6 7 1014.9 1013.4 0.0
30/06:30pm 26.0 23.0 6.1 28 10.5 NW 11 13 6 7 1014.6 1013.1 0.0
30/06:00pm 26.7 23.4 6.2 27 10.9 NW 13 17 7 9 1014.4 1012.9 0.0
30/05:30pm 27.7 23.2 5.9 25 11.6 NNW 19 24 10 13 1013.7 1012.1 0.0
30/05:00pm 28.2 23.0 5.7 24 12.0 NW 22 30 12 16 1013.6 1012.0 0.0
30/04:30pm 29.0 23.1 5.8 23 12.4 NW 26 35 14 19 1013.0 1011.5 0.0
30/04:00pm 29.7 24.2 5.7 22 12.9 NW 24 37 13 20 1012.9 1011.4 0.0
30/03:30pm 30.3 24.7 5.6 21 13.3 NW 24 37 13 20 1012.7 1011.2 0.0
30/03:00pm 29.8 24.3 5.8 22 12.9 NW 24 33 13 18 1012.4 1010.9 0.0
30/02:30pm 30.5 26.8 6.4 22 13.1 WNW 15 32 8 17 1012.4 1010.9 0.0
30/02:00pm 30.1 27.4 7.3 24 12.6 WNW 11 22 6 12 1012.5 1011.0 0.0
30/01:30pm 28.8 25.3 7.4 26 11.7 W 15 24 8 13 1012.7 1011.2 0.0
30/01:00pm 29.0 26.4 7.6 26 11.8 WSW 11 20 6 11 1013.4 1011.8 0.0
30/12:30pm 28.1 25.1 7.9 28 11.1 SW 13 20 7 11 1013.8 1012.2 0.0
30/12:00pm 27.9 26.5 9.7 32 10.3 SSW 7 13 4 7 1014.4 1012.9 0.0
30/11:30am 27.3 25.7 10.1 34 9.8 SW 9 17 5 9 1014.7 1013.2 0.0
30/11:00am 26.6 25.6 10.3 36 9.3 SSW 6 9 3 5 1014.7 1013.2 0.0
30/10:30am 26.4 25.6 9.7 35 9.4 NNW 4 7 2 4 1015.0 1013.5 0.0
30/10:00am 26.3 26.0 10.0 36 9.2 SSW 2 6 1 3 1015.7 1014.1 0.0
30/09:30am 24.6 24.2 11.2 43 7.7 SSW 4 7 2 4 1015.5 1014.0 0.0
30/09:00am 22.3 22.5 11.7 51 6.1 S 2 6 1 3 1015.7 1014.1 0.0
30/08:30am 20.7 20.8 11.6 56 5.2 W 2 4 1 2 1015.7 1014.1 0.0
30/08:00am 18.8 18.9 11.4 62 4.1 SSW 2 4 1 2 1015.7 1014.1 0.0
30/07:30am 17.6 17.5 10.9 65 3.7 SW 2 4 1 2 1015.1 1013.6 0.0
30/07:00am 15.9 15.9 11.3 74 2.5 W 2 2 1 1 1014.9 1013.4 0.0
30/06:30am 16.5 16.6 11.4 72 2.8 NNE 2 4 1 2 1014.6 1013.1 0.0
30/06:00am 15.4 15.0 11.2 76 2.3 SSW 4 6 2 3 1014.4 1012.9 0.0
30/05:30am 16.8 16.8 11.1 69 3.1 ENE 2 4 1 2 1014.0 1012.5 0.0
30/05:00am 17.0 16.3 11.5 70 3.1 N 6 7 3 4 1013.8 1012.2 0.0
30/04:30am 17.7 17.5 11.9 69 3.3 NNW 4 7 2 4 1013.9 1012.3 0.0
30/04:00am 17.5 17.4 12.0 70 3.1 NNE 4 6 2 3 1013.9 1012.3 0.0
30/03:30am 17.4 16.9 11.9 70 3.1 NNW 6 7 3 4 1014.2 1012.7 0.0
30/03:00am 17.0 16.8 11.7 71 3.0 W 4 7 2 4 1014.3 1012.8 0.0
30/02:30am 18.4 18.2 11.7 65 3.8 NNW 4 6 2 3 1014.2 1012.7 0.0
30/02:00am 19.1 19.4 12.1 64 4.0 WNW 2 4 1 2 1014.4 1012.9 0.0
30/01:30am 19.8 19.8 12.3 62 4.3 NNE 4 6 2 3 1014.6 1013.1 0.0
30/01:00am 20.9 21.0 12.6 59 4.8 WNW 4 6 2 3 1014.7 1013.2 0.0
30/12:30am 21.2 20.3 12.6 58 5.0 SW 9 15 5 8 1014.8 1013.3 0.0
30/12:00am 21.7 21.0 11.4 52 5.8 N 6 7 3 4 1014.8 1013.3 0.0
 
Date/Time
WST
Temp
°C
App
Temp
°C
Dew
Point
Rel
Hum
%
Delta-T
°C
Wind Press
QNH
hPa
Press
MSL
hPa
Rain
since 9 am
mm
Dir
 
Spd
km/h
Gust
km/h
Spd
kts
Gust
kts
29/11:30pm 22.2 21.1 11.9 52 5.9 NNW 9 9 5 5 1015.0 1013.5 0.0
29/11:00pm 22.1 19.8 10.6 48 6.4 NW 13 20 7 11 1015.0 1013.5 0.0
29/10:30pm 21.4 20.4 10.3 49 6.2 NNE 6 7 3 4 1014.8 1013.3 0.0
29/10:00pm 21.2 20.2 10.4 50 6.0 NNE 6 7 3 4 1015.0 1013.5 0.0
29/09:30pm 22.6 21.6 10.4 46 6.8 NNE 6 7 3 4 1014.9 1013.4 0.0
29/09:00pm 21.9 21.5 11.0 50 6.1 NNE 4 4 2 2 1015.1 1013.6 0.0
29/08:30pm 22.5 22.3 10.6 47 6.7 NNE 2 4 1 2 1015.0 1013.5 0.0
29/08:00pm 23.1 22.5 10.5 45 7.1 NNE 4 6 2 3 1014.7 1013.2 0.0
29/07:30pm 23.8 23.4 11.2 45 7.2 NNE 4 4 2 2 1014.5 1013.0 0.0
29/07:00pm 24.8 24.1 9.9 39 8.4 SSW 4 6 2 3 1014.3 1012.8 0.0
29/06:30pm 25.3 24.2 10.0 38 8.6 SW 6 6 3 3 1014.2 1012.7 0.0
29/06:00pm 26.4 25.1 10.1 36 9.2 SW 7 9 4 5 1014.0 1012.5 0.0
29/05:30pm 27.3 25.3 10.1 34 9.8 SW 11 19 6 10 1013.7 1012.1 0.0
29/05:00pm 27.9 25.5 10.1 33 10.2 SSW 13 19 7 10 1013.5 1011.9 0.0
29/04:30pm 28.6 27.2 10.8 33 10.3 SSW 9 19 5 10 1013.1 1011.6 0.0
29/04:00pm 28.6 26.6 11.6 34 10.0 WSW 13 19 7 10 1012.7 1011.2 0.0
29/03:30pm 29.0 27.5 12.0 35 10.1 SW 11 19 6 10 1012.6 1011.1 0.0
29/03:00pm 28.5 28.0 12.0 36 9.8 NNW 6 17 3 9 1012.5 1011.0 0.0
29/02:30pm 28.8 28.0 11.8 35 10.0 WSW 7 22 4 12 1012.8 1011.3 0.0
29/02:00pm 28.5 27.8 12.0 36 9.8 WSW 7 15 4 8 1013.0 1011.5 0.0
29/01:30pm 27.5 26.9 13.4 41 8.5 SW 9 20 5 11 1013.3 1011.7 0.0
29/01:00pm 27.0 27.0 14.1 45 7.8 NW 7 13 4 7 1013.9 1012.3 0.0
29/12:30pm 26.2 26.3 14.0 47 7.4 S 6 9 3 5 1014.5 1013.0 0.0
29/12:00pm 25.3 26.1 14.7 51 6.5 NE 4 7 2 4 1015.2 1013.7 0.0
29/11:30am 24.2 24.7 14.9 56 5.7 W 6 13 3 7 1015.7 1014.1 0.0
29/11:00am 23.6 24.3 14.6 57 5.4 S 4 7 2 4 1016.1 1014.6 0.0
29/10:30am 22.8 22.7 13.8 57 5.3 S 7 13 4 7 1016.3 1014.8 0.0
29/10:00am 21.9 21.7 13.0 57 5.2 S 6 13 3 7 1016.7 1015.2 0.0

Other Formats:

Comma delimited format used in spreadsheet applications
http://www.bom.gov.au/fwo/IDW60801/IDW60801.99737.axf

JavaScript Object Notation format (JSON) in row-major order
http://www.bom.gov.au/fwo/IDW60801/IDW60801.99737.json